sensor_id;sensor_type;location;lat;lon;timestamp;pressure;altitude;pressure_sealevel;temperature;humidity
74075;BME280;62428;51.412;5.432;2023-02-26T00:00:11;101660.97;;;-0.04;73.73
74075;BME280;62428;51.412;5.432;2023-02-26T00:02:40;101653.03;;;-0.04;74.04
74075;BME280;62428;51.412;5.432;2023-02-26T00:05:06;101651.59;;;-0.06;73.94
74075;BME280;62428;51.412;5.432;2023-02-26T00:07:32;101663.19;;;-0.07;74.55
74075;BME280;62428;51.412;5.432;2023-02-26T00:09:57;101662.53;;;-0.09;74.51
74075;BME280;62428;51.412;5.432;2023-02-26T00:12:23;101658.09;;;-0.09;74.70
74075;BME280;62428;51.412;5.432;2023-02-26T00:14:48;101666.03;;;-0.09;74.61
74075;BME280;62428;51.412;5.432;2023-02-26T00:17:31;101669.66;;;-0.10;74.65
74075;BME280;62428;51.412;5.432;2023-02-26T00:19:58;101676.78;;;-0.10;74.43
74075;BME280;62428;51.412;5.432;2023-02-26T00:22:24;101679.44;;;-0.10;74.57
74075;BME280;62428;51.412;5.432;2023-02-26T00:24:49;101675.75;;;-0.09;75.39
74075;BME280;62428;51.412;5.432;2023-02-26T00:27:15;101682.69;;;-0.08;75.07
74075;BME280;62428;51.412;5.432;2023-02-26T00:29:40;101687.34;;;-0.10;75.58
74075;BME280;62428;51.412;5.432;2023-02-26T00:32:06;101692.44;;;-0.09;75.13
74075;BME280;62428;51.412;5.432;2023-02-26T00:34:32;101692.25;;;-0.07;75.61
74075;BME280;62428;51.412;5.432;2023-02-26T00:42:10;101695.09;;;-0.09;76.01
74075;BME280;62428;51.412;5.432;2023-02-26T00:44:36;101697.72;;;-0.09;76.56
74075;BME280;62428;51.412;5.432;2023-02-26T00:47:08;101690.41;;;-0.07;76.85
74075;BME280;62428;51.412;5.432;2023-02-26T00:49:54;101700.78;;;-0.05;76.77
74075;BME280;62428;51.412;5.432;2023-02-26T00:52:40;101704.84;;;-0.03;76.96
74075;BME280;62428;51.412;5.432;2023-02-26T00:55:07;101708.09;;;-0.01;77.08
74075;BME280;62428;51.412;5.432;2023-02-26T00:57:33;101705.25;;;0.01;76.86
74075;BME280;62428;51.412;5.432;2023-02-26T00:59:58;101710.34;;;0.03;76.98
74075;BME280;62428;51.412;5.432;2023-02-26T01:02:24;101709.13;;;0.05;76.73
74075;BME280;62428;51.412;5.432;2023-02-26T01:04:49;101711.38;;;0.08;77.23
74075;BME280;62428;51.412;5.432;2023-02-26T01:07:18;101709.53;;;0.09;76.75
74075;BME280;62428;51.412;5.432;2023-02-26T01:09:47;101716.28;;;0.11;76.55
74075;BME280;62428;51.412;5.432;2023-02-26T01:12:13;101712.78;;;0.11;76.92
74075;BME280;62428;51.412;5.432;2023-02-26T01:14:39;101716.47;;;0.10;76.32
74075;BME280;62428;51.412;5.432;2023-02-26T01:17:10;101720.94;;;0.09;76.86
74075;BME280;62428;51.412;5.432;2023-02-26T01:24:40;101720.72;;;0.04;76.83
74075;BME280;62428;51.412;5.432;2023-02-26T01:27:06;101716.63;;;0.02;77.35
74075;BME280;62428;51.412;5.432;2023-02-26T01:29:31;101725.59;;;0.01;76.98
74075;BME280;62428;51.412;5.432;2023-02-26T01:32:22;101718.47;;;0.01;77.00
74075;BME280;62428;51.412;5.432;2023-02-26T01:38:08;101720.94;;;0.03;77.23
74075;BME280;62428;51.412;5.432;2023-02-26T01:41:04;101726.59;;;-0.01;77.53
74075;BME280;62428;51.412;5.432;2023-02-26T01:43:38;101723.53;;;-0.04;77.79
74075;BME280;62428;51.412;5.432;2023-02-26T01:46:32;101729.00;;;-0.06;77.42
74075;BME280;62428;51.412;5.432;2023-02-26T01:48:59;101731.25;;;-0.09;77.75
74075;BME280;62428;51.412;5.432;2023-02-26T01:51:45;101743.03;;;-0.12;77.66
74075;BME280;62428;51.412;5.432;2023-02-26T01:54:11;101739.97;;;-0.15;77.48
74075;BME280;62428;51.412;5.432;2023-02-26T01:56:38;101737.94;;;-0.20;77.48
74075;BME280;62428;51.412;5.432;2023-02-26T01:59:04;101740.56;;;-0.20;77.72
74075;BME280;62428;51.412;5.432;2023-02-26T02:01:32;101738.31;;;-0.23;78.08
74075;BME280;62428;51.412;5.432;2023-02-26T02:03:58;101736.88;;;-0.26;78.03
74075;BME280;62428;51.412;5.432;2023-02-26T02:06:26;101745.03;;;-0.27;77.95
74075;BME280;62428;51.412;5.432;2023-02-26T02:08:52;101750.50;;;-0.29;77.70
74075;BME280;62428;51.412;5.432;2023-02-26T02:11:17;101758.81;;;-0.32;78.26
74075;BME280;62428;51.412;5.432;2023-02-26T02:17:05;101762.44;;;-0.40;78.13
74075;BME280;62428;51.412;5.432;2023-02-26T02:20:04;101771.53;;;-0.42;78.04
74075;BME280;62428;51.412;5.432;2023-02-26T02:31:16;101784.44;;;-0.61;78.80
74075;BME280;62428;51.412;5.432;2023-02-26T02:33:52;101785.47;;;-0.62;78.27
74075;BME280;62428;51.412;5.432;2023-02-26T02:36:50;101780.38;;;-0.63;78.59
74075;BME280;62428;51.412;5.432;2023-02-26T02:39:24;101781.78;;;-0.61;78.64
74075;BME280;62428;51.412;5.432;2023-02-26T02:44:39;101786.50;;;-0.56;78.44
74075;BME280;62428;51.412;5.432;2023-02-26T02:47:08;101787.50;;;-0.57;78.03
74075;BME280;62428;51.412;5.432;2023-02-26T02:50:04;101799.28;;;-0.60;78.02
74075;BME280;62428;51.412;5.432;2023-02-26T02:52:38;101794.81;;;-0.59;78.09
74075;BME280;62428;51.412;5.432;2023-02-26T02:55:13;101802.72;;;-0.59;78.48
74075;BME280;62428;51.412;5.432;2023-02-26T02:57:52;101810.66;;;-0.59;77.93
74075;BME280;62428;51.412;5.432;2023-02-26T03:00:21;101811.44;;;-0.59;78.03
74075;BME280;62428;51.412;5.432;2023-02-26T03:02:59;101809.03;;;-0.60;78.00
74075;BME280;62428;51.412;5.432;2023-02-26T03:05:26;101809.03;;;-0.60;77.73
74075;BME280;62428;51.412;5.432;2023-02-26T03:07:55;101809.22;;;-0.62;77.42
74075;BME280;62428;51.412;5.432;2023-02-26T03:10:21;101813.66;;;-0.62;77.25
74075;BME280;62428;51.412;5.432;2023-02-26T03:12:47;101816.53;;;-0.64;77.22
74075;BME280;62428;51.412;5.432;2023-02-26T03:15:13;101822.97;;;-0.66;76.72
74075;BME280;62428;51.412;5.432;2023-02-26T03:18:10;101817.09;;;-0.68;76.79
74075;BME280;62428;51.412;5.432;2023-02-26T03:20:49;101832.31;;;-0.70;76.60
74075;BME280;62428;51.412;5.432;2023-02-26T03:25:54;101826.59;;;-0.74;76.06
74075;BME280;62428;51.412;5.432;2023-02-26T03:28:32;101831.06;;;-0.74;75.52
74075;BME280;62428;51.412;5.432;2023-02-26T03:31:11;101836.34;;;-0.74;75.38
74075;BME280;62428;51.412;5.432;2023-02-26T03:36:18;101835.31;;;-0.73;75.45
74075;BME280;62428;51.412;5.432;2023-02-26T03:38:56;101839.97;;;-0.75;75.90
74075;BME280;62428;51.412;5.432;2023-02-26T03:41:37;101841.00;;;-0.76;75.46
74075;BME280;62428;51.412;5.432;2023-02-26T03:44:08;101847.28;;;-0.78;76.10
74075;BME280;62428;51.412;5.432;2023-02-26T03:46:40;101845.63;;;-0.79;75.52
74075;BME280;62428;51.412;5.432;2023-02-26T03:49:15;101848.66;;;-0.82;75.93
74075;BME280;62428;51.412;5.432;2023-02-26T03:51:44;101854.31;;;-0.85;75.87
74075;BME280;62428;51.412;5.432;2023-02-26T03:54:19;101858.78;;;-0.85;76.50
74075;BME280;62428;51.412;5.432;2023-02-26T03:56:46;101872.16;;;-0.87;76.16
74075;BME280;62428;51.412;5.432;2023-02-26T03:59:13;101865.25;;;-0.88;76.44
74075;BME280;62428;51.412;5.432;2023-02-26T04:01:43;101864.63;;;-0.90;76.43
74075;BME280;62428;51.412;5.432;2023-02-26T04:04:52;101875.56;;;-0.93;76.45
74075;BME280;62428;51.412;5.432;2023-02-26T04:07:16;101871.47;;;-0.95;76.48
74075;BME280;62428;51.412;5.432;2023-02-26T04:09:45;101873.66;;;-0.99;76.96
74075;BME280;62428;51.412;5.432;2023-02-26T04:12:10;101868.56;;;-1.01;77.05
74075;BME280;62428;51.412;5.432;2023-02-26T04:14:36;101882.16;;;-1.04;77.66
74075;BME280;62428;51.412;5.432;2023-02-26T04:17:01;101875.25;;;-1.05;77.31
74075;BME280;62428;51.412;5.432;2023-02-26T04:19:27;101879.91;;;-1.07;76.97
74075;BME280;62428;51.412;5.432;2023-02-26T04:21:52;101878.25;;;-1.08;77.31
74075;BME280;62428;51.412;5.432;2023-02-26T04:24:18;101895.91;;;-1.08;77.53
74075;BME280;62428;51.412;5.432;2023-02-26T04:26:43;101884.53;;;-1.09;77.41
74075;BME280;62428;51.412;5.432;2023-02-26T04:29:09;101889.00;;;-1.09;76.74
74075;BME280;62428;51.412;5.432;2023-02-26T04:31:35;101889.00;;;-1.09;76.65
74075;BME280;62428;51.412;5.432;2023-02-26T04:34:00;101896.50;;;-1.13;76.84
74075;BME280;62428;51.412;5.432;2023-02-26T04:36:25;101905.22;;;-1.12;76.89
74075;BME280;62428;51.412;5.432;2023-02-26T04:38:50;101900.28;;;-1.16;77.03
74075;BME280;62428;51.412;5.432;2023-02-26T04:41:16;101908.22;;;-1.16;77.42
74075;BME280;62428;51.412;5.432;2023-02-26T04:43:41;101913.66;;;-1.17;77.09
74075;BME280;62428;51.412;5.432;2023-02-26T04:46:06;101913.88;;;-1.19;77.00
74075;BME280;62428;51.412;5.432;2023-02-26T04:48:32;101914.88;;;-1.20;76.65
74075;BME280;62428;51.412;5.432;2023-02-26T04:50:57;101917.50;;;-1.20;76.87
74075;BME280;62428;51.412;5.432;2023-02-26T04:53:22;101914.25;;;-1.22;76.98
74075;BME280;62428;51.412;5.432;2023-02-26T04:55:48;101915.22;;;-1.23;76.94
74075;BME280;62428;51.412;5.432;2023-02-26T04:58:14;101921.72;;;-1.25;76.70
74075;BME280;62428;51.412;5.432;2023-02-26T05:00:40;101920.06;;;-1.26;76.94
74075;BME280;62428;51.412;5.432;2023-02-26T05:03:05;101925.72;;;-1.29;77.00
74075;BME280;62428;51.412;5.432;2023-02-26T05:05:31;101928.53;;;-1.31;76.86
74075;BME280;62428;51.412;5.432;2023-02-26T05:07:57;101934.00;;;-1.32;76.72
74075;BME280;62428;51.412;5.432;2023-02-26T05:10:23;101941.09;;;-1.33;77.44
74075;BME280;62428;51.412;5.432;2023-02-26T05:12:48;101943.13;;;-1.35;77.14
74075;BME280;62428;51.412;5.432;2023-02-26T05:15:14;101944.09;;;-1.36;76.66
74075;BME280;62428;51.412;5.432;2023-02-26T05:17:39;101945.31;;;-1.39;76.50
74075;BME280;62428;51.412;5.432;2023-02-26T05:20:05;101946.47;;;-1.41;76.32
74075;BME280;62428;51.412;5.432;2023-02-26T05:22:34;101949.69;;;-1.46;76.38
74075;BME280;62428;51.412;5.432;2023-02-26T05:25:00;101944.59;;;-1.47;76.61
74075;BME280;62428;51.412;5.432;2023-02-26T05:27:25;101949.22;;;-1.49;76.43
74075;BME280;62428;51.412;5.432;2023-02-26T05:29:51;101955.66;;;-1.52;76.85
74075;BME280;62428;51.412;5.432;2023-02-26T05:32:16;101954.03;;;-1.53;76.44
74075;BME280;62428;51.412;5.432;2023-02-26T05:34:41;101963.97;;;-1.55;76.59
74075;BME280;62428;51.412;5.432;2023-02-26T05:37:07;101966.59;;;-1.55;76.20
74075;BME280;62428;51.412;5.432;2023-02-26T05:39:32;101961.50;;;-1.57;76.03
74075;BME280;62428;51.412;5.432;2023-02-26T05:41:57;101963.13;;;-1.56;75.93
74075;BME280;62428;51.412;5.432;2023-02-26T05:44:23;101957.22;;;-1.58;75.58
74075;BME280;62428;51.412;5.432;2023-02-26T05:46:48;101959.84;;;-1.58;75.68
74075;BME280;62428;51.412;5.432;2023-02-26T05:49:14;101958.41;;;-1.60;75.36
74075;BME280;62428;51.412;5.432;2023-02-26T05:51:39;101967.13;;;-1.60;75.39
74075;BME280;62428;51.412;5.432;2023-02-26T05:54:07;101968.97;;;-1.60;75.12
74075;BME280;62428;51.412;5.432;2023-02-26T05:56:32;101968.97;;;-1.60;75.29
74075;BME280;62428;51.412;5.432;2023-02-26T05:58:57;101977.84;;;-1.61;74.92
74075;BME280;62428;51.412;5.432;2023-02-26T06:01:23;101983.13;;;-1.61;74.66
74075;BME280;62428;51.412;5.432;2023-02-26T06:03:48;101985.94;;;-1.63;75.01
74075;BME280;62428;51.412;5.432;2023-02-26T06:06:14;101988.78;;;-1.64;74.38
74075;BME280;62428;51.412;5.432;2023-02-26T06:08:46;101994.84;;;-1.64;74.26
74075;BME280;62428;51.412;5.432;2023-02-26T06:11:11;101997.50;;;-1.64;74.30
74075;BME280;62428;51.412;5.432;2023-02-26T06:13:37;102001.28;;;-1.66;74.45
74075;BME280;62428;51.412;5.432;2023-02-26T06:16:03;102008.38;;;-1.67;74.69
74075;BME280;62428;51.412;5.432;2023-02-26T06:18:29;102013.03;;;-1.69;74.86
74075;BME280;62428;51.412;5.432;2023-02-26T06:20:56;102012.22;;;-1.69;74.43
74075;BME280;62428;51.412;5.432;2023-02-26T06:23:21;102018.47;;;-1.70;74.40
74075;BME280;62428;51.412;5.432;2023-02-26T06:25:49;102032.66;;;-1.71;74.93
74075;BME280;62428;51.412;5.432;2023-02-26T06:28:14;102028.38;;;-1.72;74.44
74075;BME280;62428;51.412;5.432;2023-02-26T06:30:40;102029.38;;;-1.74;74.23
74075;BME280;62428;51.412;5.432;2023-02-26T06:33:05;102033.03;;;-1.75;74.11
74075;BME280;62428;51.412;5.432;2023-02-26T06:35:30;102045.38;;;-1.75;74.12
74075;BME280;62428;51.412;5.432;2023-02-26T06:37:56;102045.38;;;-1.75;73.58
74075;BME280;62428;51.412;5.432;2023-02-26T06:40:22;102047.00;;;-1.74;73.81
74075;BME280;62428;51.412;5.432;2023-02-26T06:42:47;102053.09;;;-1.74;73.85
74075;BME280;62428;51.412;5.432;2023-02-26T06:45:12;102059.19;;;-1.73;74.21
74075;BME280;62428;51.412;5.432;2023-02-26T06:47:38;102063.44;;;-1.72;73.82
74075;BME280;62428;51.412;5.432;2023-02-26T06:50:03;102067.09;;;-1.73;74.21
74075;BME280;62428;51.412;5.432;2023-02-26T06:52:29;102074.84;;;-1.71;73.66
74075;BME280;62428;51.412;5.432;2023-02-26T06:54:54;102077.66;;;-1.73;74.35
74075;BME280;62428;51.412;5.432;2023-02-26T06:57:20;102082.91;;;-1.73;74.07
74075;BME280;62428;51.412;5.432;2023-02-26T06:59:45;102084.53;;;-1.72;73.37
74075;BME280;62428;51.412;5.432;2023-02-26T07:02:19;102084.34;;;-1.70;73.85
74075;BME280;62428;51.412;5.432;2023-02-26T07:04:44;102094.72;;;-1.69;73.69
74075;BME280;62428;51.412;5.432;2023-02-26T07:07:10;102091.75;;;-1.66;73.85
74075;BME280;62428;51.412;5.432;2023-02-26T07:09:35;102108.38;;;-1.65;73.71
74075;BME280;62428;51.412;5.432;2023-02-26T07:12:01;102107.19;;;-1.63;73.23
74075;BME280;62428;51.412;5.432;2023-02-26T07:14:26;102110.66;;;-1.62;73.29
74075;BME280;62428;51.412;5.432;2023-02-26T07:16:51;102113.09;;;-1.61;73.74
74075;BME280;62428;51.412;5.432;2023-02-26T07:19:17;102112.72;;;-1.58;73.54
74075;BME280;62428;51.412;5.432;2023-02-26T07:21:42;102126.56;;;-1.56;73.30
74075;BME280;62428;51.412;5.432;2023-02-26T07:24:07;102125.38;;;-1.53;73.78
74075;BME280;62428;51.412;5.432;2023-02-26T07:26:33;102133.94;;;-1.51;74.09
74075;BME280;62428;51.412;5.432;2023-02-26T07:28:58;102140.47;;;-1.47;73.86
74075;BME280;62428;51.412;5.432;2023-02-26T07:31:24;102147.03;;;-1.43;73.33
74075;BME280;62428;51.412;5.432;2023-02-26T07:33:49;102149.31;;;-1.40;73.54
74075;BME280;62428;51.412;5.432;2023-02-26T07:36:14;102153.41;;;-1.37;73.99
74075;BME280;62428;51.412;5.432;2023-02-26T07:38:40;102163.59;;;-1.34;73.27
74075;BME280;62428;51.412;5.432;2023-02-26T07:41:05;102168.34;;;-1.29;73.54
74075;BME280;62428;51.412;5.432;2023-02-26T07:43:30;102173.25;;;-1.26;73.16
74075;BME280;62428;51.412;5.432;2023-02-26T07:45:56;102172.72;;;-1.22;73.15
74075;BME280;62428;51.412;5.432;2023-02-26T07:48:21;102173.16;;;-1.18;72.85
74075;BME280;62428;51.412;5.432;2023-02-26T07:50:50;102171.63;;;-1.12;73.44
74075;BME280;62428;51.412;5.432;2023-02-26T07:53:16;102169.28;;;-1.07;73.02
74075;BME280;62428;51.412;5.432;2023-02-26T07:55:41;102171.81;;;-0.99;73.31
74075;BME280;62428;51.412;5.432;2023-02-26T07:58:07;102177.38;;;-0.94;72.25
74075;BME280;62428;51.412;5.432;2023-02-26T08:00:32;102175.63;;;-0.87;72.69
74075;BME280;62428;51.412;5.432;2023-02-26T08:02:57;102178.81;;;-0.76;73.06
74075;BME280;62428;51.412;5.432;2023-02-26T08:05:22;102192.19;;;-0.63;71.04
74075;BME280;62428;51.412;5.432;2023-02-26T08:07:48;102186.44;;;-0.52;71.68
74075;BME280;62428;51.412;5.432;2023-02-26T08:10:13;102196.97;;;-0.37;70.87
74075;BME280;62428;51.412;5.432;2023-02-26T08:12:38;102196.28;;;-0.24;71.27
74075;BME280;62428;51.412;5.432;2023-02-26T08:15:05;102198.91;;;-0.09;70.17
74075;BME280;62428;51.412;5.432;2023-02-26T08:17:30;102201.88;;;0.03;70.01
74075;BME280;62428;51.412;5.432;2023-02-26T08:19:56;102200.38;;;0.15;69.34
74075;BME280;62428;51.412;5.432;2023-02-26T08:22:21;102209.44;;;0.27;68.93
74075;BME280;62428;51.412;5.432;2023-02-26T08:24:48;102209.75;;;0.39;68.73
74075;BME280;62428;51.412;5.432;2023-02-26T08:27:13;102207.22;;;0.52;68.68
74075;BME280;62428;51.412;5.432;2023-02-26T08:29:38;102213.03;;;0.69;67.44
74075;BME280;62428;51.412;5.432;2023-02-26T08:32:04;102213.97;;;0.83;68.16
74075;BME280;62428;51.412;5.432;2023-02-26T08:34:29;102214.47;;;1.00;68.03
74075;BME280;62428;51.412;5.432;2023-02-26T08:36:54;102216.19;;;1.14;67.15
74075;BME280;62428;51.412;5.432;2023-02-26T08:39:20;102218.72;;;1.29;66.01
74075;BME280;62428;51.412;5.432;2023-02-26T08:41:45;102220.19;;;1.39;66.10
74075;BME280;62428;51.412;5.432;2023-02-26T08:44:10;102230.63;;;1.47;65.41
74075;BME280;62428;51.412;5.432;2023-02-26T08:46:36;102227.78;;;1.48;65.84
74075;BME280;62428;51.412;5.432;2023-02-26T08:49:01;102236.97;;;1.52;64.54
74075;BME280;62428;51.412;5.432;2023-02-26T08:51:27;102231.06;;;1.50;65.43
74075;BME280;62428;51.412;5.432;2023-02-26T08:53:52;102242.94;;;1.61;65.68
74075;BME280;62428;51.412;5.432;2023-02-26T08:56:18;102234.00;;;1.69;64.61
74075;BME280;62428;51.412;5.432;2023-02-26T08:58:43;102257.03;;;1.68;64.61
74075;BME280;62428;51.412;5.432;2023-02-26T09:01:09;102242.56;;;1.71;65.85
74075;BME280;62428;51.412;5.432;2023-02-26T09:03:34;102247.69;;;1.79;65.17
74075;BME280;62428;51.412;5.432;2023-02-26T09:06:00;102249.75;;;1.84;64.83
74075;BME280;62428;51.412;5.432;2023-02-26T09:08:25;102262.59;;;1.87;65.68
74075;BME280;62428;51.412;5.432;2023-02-26T09:10:50;102264.44;;;1.93;65.57
74075;BME280;62428;51.412;5.432;2023-02-26T09:13:16;102269.38;;;1.96;64.19
74075;BME280;62428;51.412;5.432;2023-02-26T09:15:41;102272.00;;;1.96;64.25
74075;BME280;62428;51.412;5.432;2023-02-26T09:18:07;102275.47;;;1.97;63.75
74075;BME280;62428;51.412;5.432;2023-02-26T09:20:39;102274.06;;;2.01;64.26
74075;BME280;62428;51.412;5.432;2023-02-26T09:23:04;102275.53;;;2.10;63.44
74075;BME280;62428;51.412;5.432;2023-02-26T09:25:30;102280.63;;;2.11;63.90
74075;BME280;62428;51.412;5.432;2023-02-26T09:27:55;102281.06;;;2.22;64.90
74075;BME280;62428;51.412;5.432;2023-02-26T09:30:21;102286.00;;;2.38;63.91
74075;BME280;62428;51.412;5.432;2023-02-26T09:32:46;102298.69;;;2.56;63.25
74075;BME280;62428;51.412;5.432;2023-02-26T09:35:11;102289.91;;;2.69;63.30
74075;BME280;62428;51.412;5.432;2023-02-26T09:37:37;102292.38;;;2.84;62.63
74075;BME280;62428;51.412;5.432;2023-02-26T09:40:02;102302.59;;;3.00;62.14
74075;BME280;62428;51.412;5.432;2023-02-26T09:42:57;102305.22;;;3.14;61.70
74075;BME280;62428;51.412;5.432;2023-02-26T09:45:31;102308.09;;;3.25;62.40
74075;BME280;62428;51.412;5.432;2023-02-26T09:47:58;102318.72;;;3.19;59.26
74075;BME280;62428;51.412;5.432;2023-02-26T09:50:35;102310.56;;;3.00;59.93
74075;BME280;62428;51.412;5.432;2023-02-26T09:53:10;102317.69;;;2.93;60.97
74075;BME280;62428;51.412;5.432;2023-02-26T09:55:42;102317.09;;;2.91;60.12
74075;BME280;62428;51.412;5.432;2023-02-26T09:58:30;102323.81;;;3.00;61.34
74075;BME280;62428;51.412;5.432;2023-02-26T10:05:36;102337.50;;;3.04;60.18
74075;BME280;62428;51.412;5.432;2023-02-26T10:07:55;102331.38;;;3.17;59.32
74075;BME280;62428;51.412;5.432;2023-02-26T10:12:51;102341.00;;;3.11;58.67
74075;BME280;62428;51.412;5.432;2023-02-26T10:15:23;102348.34;;;3.09;58.37
74075;BME280;62428;51.412;5.432;2023-02-26T10:18:13;102355.09;;;2.98;57.80
74075;BME280;62428;51.412;5.432;2023-02-26T10:20:54;102365.88;;;2.77;58.39
74075;BME280;62428;51.412;5.432;2023-02-26T10:23:31;102362.59;;;2.75;58.60
74075;BME280;62428;51.412;5.432;2023-02-26T10:31:38;102368.28;;;2.58;59.16
74075;BME280;62428;51.412;5.432;2023-02-26T10:34:20;102369.94;;;2.66;57.72
74075;BME280;62428;51.412;5.432;2023-02-26T10:39:56;102368.72;;;2.62;58.11
74075;BME280;62428;51.412;5.432;2023-02-26T10:42:30;102359.75;;;2.63;56.83
74075;BME280;62428;51.412;5.432;2023-02-26T10:48:30;102358.34;;;2.94;57.68
74075;BME280;62428;51.412;5.432;2023-02-26T10:51:18;102363.06;;;3.05;57.41
74075;BME280;62428;51.412;5.432;2023-02-26T10:53:51;102358.75;;;3.17;56.28
74075;BME280;62428;51.412;5.432;2023-02-26T10:56:26;102371.03;;;3.38;56.66
74075;BME280;62428;51.412;5.432;2023-02-26T10:58:53;102368.53;;;3.57;53.91
74075;BME280;62428;51.412;5.432;2023-02-26T11:01:21;102367.50;;;3.64;53.97
74075;BME280;62428;51.412;5.432;2023-02-26T11:03:57;102364.00;;;3.77;53.83
74075;BME280;62428;51.412;5.432;2023-02-26T11:06:30;102361.25;;;4.04;54.12
74075;BME280;62428;51.412;5.432;2023-02-26T11:08:58;102367.50;;;4.30;53.30
74075;BME280;62428;51.412;5.432;2023-02-26T11:14:18;102363.16;;;4.42;52.50
74075;BME280;62428;51.412;5.432;2023-02-26T11:16:55;102374.13;;;4.52;53.40
74075;BME280;62428;51.412;5.432;2023-02-26T11:19:30;102360.75;;;4.66;52.69
74075;BME280;62428;51.412;5.432;2023-02-26T11:21:57;102369.59;;;4.59;50.11
74075;BME280;62428;51.412;5.432;2023-02-26T11:24:34;102367.47;;;4.75;50.99
74075;BME280;62428;51.412;5.432;2023-02-26T11:27:02;102363.88;;;4.88;49.28
74075;BME280;62428;51.412;5.432;2023-02-26T11:29:38;102369.06;;;4.76;49.01
74075;BME280;62428;51.412;5.432;2023-02-26T11:32:05;102365.22;;;4.72;48.76
74075;BME280;62428;51.412;5.432;2023-02-26T11:34:31;102359.47;;;4.75;46.83
74075;BME280;62428;51.412;5.432;2023-02-26T11:36:59;102362.59;;;4.65;47.24
74075;BME280;62428;51.412;5.432;2023-02-26T11:39:27;102362.75;;;4.70;47.45
74075;BME280;62428;51.412;5.432;2023-02-26T11:41:58;102358.34;;;4.89;48.46
74075;BME280;62428;51.412;5.432;2023-02-26T11:44:36;102356.81;;;5.00;49.16
74075;BME280;62428;51.412;5.432;2023-02-26T11:47:14;102354.38;;;4.98;49.90
74075;BME280;62428;51.412;5.432;2023-02-26T11:49:52;102354.31;;;5.05;47.01
74075;BME280;62428;51.412;5.432;2023-02-26T11:52:28;102350.34;;;4.89;47.00
74075;BME280;62428;51.412;5.432;2023-02-26T11:55:00;102356.16;;;5.05;46.90
74075;BME280;62428;51.412;5.432;2023-02-26T11:57:28;102355.56;;;5.03;44.26
74075;BME280;62428;51.412;5.432;2023-02-26T11:59:54;102355.19;;;4.99;46.23
74075;BME280;62428;51.412;5.432;2023-02-26T12:02:23;102357.31;;;5.15;44.40
74075;BME280;62428;51.412;5.432;2023-02-26T12:04:55;102364.50;;;5.15;44.90
74075;BME280;62428;51.412;5.432;2023-02-26T12:07:21;102377.03;;;5.33;44.19
74075;BME280;62428;51.412;5.432;2023-02-26T12:09:47;102361.59;;;5.60;46.75
74075;BME280;62428;51.412;5.432;2023-02-26T12:15:34;102368.06;;;5.89;43.38
74075;BME280;62428;51.412;5.432;2023-02-26T12:20:42;102378.84;;;6.01;43.89
74075;BME280;62428;51.412;5.432;2023-02-26T12:26:13;102373.03;;;5.67;41.35
74075;BME280;62428;51.412;5.432;2023-02-26T12:34:45;102379.00;;;5.44;44.96
74075;BME280;62428;51.412;5.432;2023-02-26T12:38:07;102380.97;;;5.74;43.81
74075;BME280;62428;51.412;5.432;2023-02-26T12:43:17;102364.94;;;5.99;41.79
74075;BME280;62428;51.412;5.432;2023-02-26T12:51:32;102365.66;;;6.06;41.88
74075;BME280;62428;51.412;5.432;2023-02-26T13:03:25;102370.16;;;5.87;44.29
74075;BME280;62428;51.412;5.432;2023-02-26T13:12:04;102357.56;;;5.32;44.92
74075;BME280;62428;51.412;5.432;2023-02-26T13:17:44;102362.06;;;5.13;44.26
74075;BME280;62428;51.412;5.432;2023-02-26T13:20:16;102352.88;;;5.09;43.35
74075;BME280;62428;51.412;5.432;2023-02-26T13:22:58;102356.00;;;4.99;43.48
74075;BME280;62428;51.412;5.432;2023-02-26T13:25:47;102354.47;;;4.85;44.06
74075;BME280;62428;51.412;5.432;2023-02-26T13:30:59;102350.66;;;4.74;44.14
74075;BME280;62428;51.412;5.432;2023-02-26T13:33:30;102356.16;;;4.79;43.97
74075;BME280;62428;51.412;5.432;2023-02-26T13:35:56;102363.91;;;4.81;42.39
74075;BME280;62428;51.412;5.432;2023-02-26T13:38:39;102361.28;;;4.74;44.08
74075;BME280;62428;51.412;5.432;2023-02-26T13:46:38;102353.88;;;5.08;43.11
74075;BME280;62428;51.412;5.432;2023-02-26T13:49:15;102355.06;;;5.37;44.63
74075;BME280;62428;51.412;5.432;2023-02-26T13:51:47;102358.81;;;5.73;43.45
74075;BME280;62428;51.412;5.432;2023-02-26T14:01:55;102352.69;;;6.82;41.86
74075;BME280;62428;51.412;5.432;2023-02-26T14:04:30;102353.69;;;7.23;40.88
74075;BME280;62428;51.412;5.432;2023-02-26T14:06:59;102352.97;;;7.51;39.49
74075;BME280;62428;51.412;5.432;2023-02-26T14:19:42;102366.03;;;7.36;41.31
74075;BME280;62428;51.412;5.432;2023-02-26T14:24:38;102356.63;;;8.38;38.01
74075;BME280;62428;51.412;5.432;2023-02-26T14:29:42;102361.34;;;9.28;36.20
74075;BME280;62428;51.412;5.432;2023-02-26T14:32:13;102353.75;;;9.58;38.03
74075;BME280;62428;51.412;5.432;2023-02-26T14:34:49;102363.31;;;9.93;37.40
74075;BME280;62428;51.412;5.432;2023-02-26T14:37:19;102362.56;;;9.98;34.07
74075;BME280;62428;51.412;5.432;2023-02-26T14:39:49;102360.78;;;9.65;35.00
74075;BME280;62428;51.412;5.432;2023-02-26T14:42:27;102359.88;;;9.76;36.39
74075;BME280;62428;51.412;5.432;2023-02-26T14:45:05;102361.25;;;10.00;35.69
74075;BME280;62428;51.412;5.432;2023-02-26T14:47:33;102354.97;;;9.51;34.45
74075;BME280;62428;51.412;5.432;2023-02-26T14:49:58;102351.94;;;9.08;35.06
74075;BME280;62428;51.412;5.432;2023-02-26T14:55:39;102351.47;;;10.16;35.88
74075;BME280;62428;51.412;5.432;2023-02-26T15:01:31;102348.59;;;10.45;34.75
74075;BME280;62428;51.412;5.432;2023-02-26T15:04:43;102354.16;;;11.35;36.35
74075;BME280;62428;51.412;5.432;2023-02-26T15:07:22;102360.44;;;11.51;34.29
74075;BME280;62428;51.412;5.432;2023-02-26T15:12:51;102363.84;;;11.37;32.50
74075;BME280;62428;51.412;5.432;2023-02-26T15:21:33;102369.59;;;10.48;35.30
74075;BME280;62428;51.412;5.432;2023-02-26T15:24:02;102362.28;;;10.44;33.38
74075;BME280;62428;51.412;5.432;2023-02-26T15:26:30;102359.53;;;10.16;32.90
74075;BME280;62428;51.412;5.432;2023-02-26T15:28:57;102359.59;;;9.55;33.30
74075;BME280;62428;51.412;5.432;2023-02-26T15:31:32;102367.28;;;8.79;36.06